Time;durP1;ratioP1;P1;durP2;ratioP2;P2;SDS_P1;SDS_P2;PMS_P1;PMS_P2;Temp;Humidity;BMP_temperature;BMP_pressure;BME280_temperature;BME280_humidity;BME280_pressure;Samples;Min_cycle;Max_cycle;Signal;HPM_P1;HPM_P2
2022/12/15 00:40:27;;;;;;;3.10;2.90;;;-9.20;97.30;;;;;;4995285;28;20476;-83
2022/12/15 00:42:53;;;;;;;8.37;6.67;;;-9.20;97.30;;;;;;4973418;28;20884;-82
2022/12/15 00:45:18;;;;;;;5.27;4.97;;;-9.20;97.30;;;;;;4987643;28;20679;-85
2022/12/15 00:47:44;;;;;;;2.77;2.57;;;-9.20;97.30;;;;;;5017008;28;20262;-85
2022/12/15 01:20:19;;;;;;;7.27;6.07;;;-9.40;97.30;;;;;;5014942;28;21188;-85
2022/12/15 01:22:47;;;;;;;3.30;3.10;;;-9.50;97.30;;;;;;5004032;28;20726;-82
2022/12/15 01:25:13;;;;;;;2.50;2.30;;;-9.50;97.30;;;;;;5002214;28;20503;-85
2022/12/15 01:27:38;;;;;;;6.17;3.97;;;-9.50;97.30;;;;;;5004800;28;20829;-81
2022/12/15 01:30:06;;;;;;;3.00;2.80;;;-9.50;97.30;;;;;;5003264;28;20456;-86
2022/12/15 01:32:32;;;;;;;2.87;2.67;;;-9.50;97.30;;;;;;5010487;28;20245;-83
2022/12/15 01:34:57;;;;;;;2.87;2.67;;;-9.60;97.30;;;;;;5004101;28;20438;-85
2022/12/15 01:37:23;;;;;;;20.27;6.17;;;-9.60;97.30;;;;;;5004298;28;20177;-85
2022/12/15 01:42:33;;;;;;;2.80;2.60;;;-9.60;97.30;;;;;;5022538;28;20192;-82
2022/12/15 01:45:23;;;;;;;3.73;2.37;;;-9.60;97.30;;;;;;5014101;28;20422;-81
2022/12/15 01:47:50;;;;;;;2.97;2.77;;;-9.60;97.30;;;;;;5015117;28;20198;-82
2022/12/15 01:50:16;;;;;;;4.50;3.97;;;-9.60;97.30;;;;;;5016581;28;20466;-86
2022/12/15 01:52:42;;;;;;;3.30;3.10;;;-9.60;97.30;;;;;;5007468;28;20421;-84
2022/12/15 01:55:09;;;;;;;2.83;2.63;;;-9.60;97.30;;;;;;5010520;28;20454;-83
2022/12/15 01:57:35;;;;;;;3.17;2.97;;;-9.60;97.30;;;;;;5009575;28;20416;-84
2022/12/15 02:00:05;;;;;;;6.60;4.13;;;-9.60;97.30;;;;;;4991374;28;20426;-84
2022/12/15 02:02:32;;;;;;;2.40;2.20;;;-9.50;97.30;;;;;;5004336;28;20424;-84
2022/12/15 02:04:59;;;;;;;3.80;3.60;;;-9.60;97.30;;;;;;5022782;28;20943;-84
2022/12/15 02:07:25;;;;;;;3.43;3.23;;;-9.70;97.30;;;;;;5007900;28;20499;-82
2022/12/15 02:09:54;;;;;;;3.80;3.50;;;-9.70;97.30;;;;;;5003334;28;20435;-83
2022/12/15 02:12:32;;;;;;;7.60;3.93;;;-9.70;97.30;;;;;;5004015;28;20428;-83
2022/12/15 02:15:05;;;;;;;1.70;1.60;;;-9.70;97.30;;;;;;5022154;28;20434;-84
2022/12/15 02:18:01;;;;;;;3.10;2.53;;;-9.70;97.30;;;;;;5023505;28;20507;-82
2022/12/15 02:20:33;;;;;;;2.60;2.40;;;-9.70;97.30;;;;;;5002085;28;20425;-82
2022/12/15 02:23:36;;;;;;;3.07;2.87;;;-9.70;97.30;;;;;;5029009;28;20411;-83
2022/12/15 02:26:05;;;;;;;23.93;4.40;;;-9.70;97.30;;;;;;4983733;28;20543;-82
2022/12/15 02:28:55;;;;;;;2.33;2.13;;;-9.70;97.30;;;;;;4994750;28;20444;-83
2022/12/15 02:31:50;;;;;;;5.30;5.00;;;-9.70;97.30;;;;;;5021645;28;20489;-83
2022/12/15 02:34:53;;;;;;;3.10;2.77;;;-9.70;97.30;;;;;;4990942;28;20428;-82
2022/12/15 02:37:28;;;;;;;1.80;1.70;;;-9.70;97.30;;;;;;5002555;28;20530;-85
2022/12/15 02:39:54;;;;;;;2.40;2.23;;;-9.60;97.30;;;;;;4999415;28;20427;-83
2022/12/15 02:42:20;;;;;;;3.30;3.10;;;-9.60;97.30;;;;;;5015245;28;20997;-84
2022/12/15 02:44:54;;;;;;;5.00;4.73;;;-9.60;97.30;;;;;;5004325;28;20177;-82
2022/12/15 02:47:36;;;;;;;3.80;2.20;;;-9.60;97.30;;;;;;4988857;28;20471;-81
2022/12/15 02:50:17;;;;;;;1.63;1.53;;;-9.60;97.30;;;;;;4991587;28;20455;-84
2022/12/15 02:53:01;;;;;;;2.83;2.70;;;-9.60;97.30;;;;;;5007769;28;20433;-82
2022/12/15 02:56:01;;;;;;;3.27;3.07;;;-9.60;97.30;;;;;;5002537;28;20450;-82
2022/12/15 02:58:45;;;;;;;2.30;2.10;;;-9.60;97.30;;;;;;4993550;28;20420;-83
2022/12/15 03:01:17;;;;;;;2.20;2.00;;;-9.70;97.30;;;;;;5002345;28;20423;-84
2022/12/15 03:03:43;;;;;;;3.83;3.23;;;-9.70;97.30;;;;;;5005354;28;20428;-82
2022/12/15 03:06:09;;;;;;;3.43;3.23;;;-9.80;97.30;;;;;;4986249;28;20464;-86
2022/12/15 03:08:35;;;;;;;4.90;4.60;;;-9.80;97.30;;;;;;4994318;28;20416;-86
2022/12/15 03:11:01;;;;;;;1.60;1.50;;;-9.80;97.30;;;;;;4995486;28;20207;-86
2022/12/15 03:13:26;;;;;;;1.83;1.73;;;-9.80;97.30;;;;;;4994811;28;20272;-86
2022/12/15 03:15:53;;;;;;;4.27;4.00;;;-9.80;97.30;;;;;;4973255;28;20473;-88
2022/12/15 03:18:19;;;;;;;3.53;2.43;;;-9.80;97.30;;;;;;4983113;28;20174;-86
2022/12/15 03:20:44;;;;;;;2.63;2.43;;;-9.80;97.30;;;;;;4982956;28;20464;-86
2022/12/15 03:23:10;;;;;;;2.67;2.47;;;-9.80;97.30;;;;;;5013668;28;20419;-87
2022/12/15 03:25:35;;;;;;;2.47;2.27;;;-9.70;97.30;;;;;;4996735;28;20205;-86
2022/12/15 03:28:01;;;;;;;5.73;4.93;;;-9.70;97.30;;;;;;4995876;28;20193;-86
2022/12/15 03:30:26;;;;;;;1.73;1.63;;;-9.80;97.30;;;;;;5013444;28;20201;-86
2022/12/15 03:32:52;;;;;;;2.27;2.07;;;-9.70;97.30;;;;;;4993094;28;20178;-86
2022/12/15 03:35:18;;;;;;;2.40;2.20;;;-9.80;97.30;;;;;;4988034;28;20221;-86
2022/12/15 03:37:43;;;;;;;3.00;2.80;;;-9.70;97.30;;;;;;4999229;28;20276;-86
2022/12/15 03:40:09;;;;;;;17.10;3.83;;;-9.70;97.30;;;;;;5008240;28;20181;-86
2022/12/15 03:42:47;;;;;;;2.40;2.20;;;-9.70;97.30;;;;;;4980358;28;20276;-88
2022/12/15 03:45:13;;;;;;;3.13;2.93;;;-9.70;97.30;;;;;;4989415;28;20992;-86
2022/12/15 03:47:40;;;;;;;3.07;2.90;;;-9.70;97.30;;;;;;4988736;28;20483;-85
2022/12/15 03:50:06;;;;;;;1.50;1.40;;;-9.70;97.30;;;;;;5001733;28;20458;-87
2022/12/15 03:52:32;;;;;;;6.70;4.30;;;-9.70;97.30;;;;;;4988734;28;20420;-87
2022/12/15 03:54:58;;;;;;;2.60;2.40;;;-9.70;97.30;;;;;;4998434;28;20794;-88
2022/12/15 03:57:23;;;;;;;3.90;3.70;;;-9.60;97.30;;;;;;4999214;28;20252;-86
2022/12/15 03:59:49;;;;;;;4.20;2.80;;;-9.60;97.30;;;;;;4998682;28;20166;-87
2022/12/15 04:02:14;;;;;;;3.50;3.30;;;-9.60;97.30;;;;;;4988263;28;20172;-86
2022/12/15 04:04:40;;;;;;;1.93;1.83;;;-9.60;97.30;;;;;;4996266;28;20573;-86
2022/12/15 04:07:05;;;;;;;3.23;3.03;;;-9.60;97.30;;;;;;4998552;28;20512;-86
2022/12/15 04:09:31;;;;;;;5.70;4.73;;;-9.60;97.30;;;;;;4995591;28;20208;-86
2022/12/15 04:11:56;;;;;;;4.10;3.40;;;-9.60;97.30;;;;;;4979695;28;20237;-85
2022/12/15 04:14:22;;;;;;;2.90;2.70;;;-9.60;97.30;;;;;;4993810;28;20605;-85
2022/12/15 04:16:47;;;;;;;5.80;3.73;;;-9.60;97.30;;;;;;5027452;23;20240;-86
2022/12/15 04:22:00;;;;;;;2.47;2.30;;;-9.60;97.30;;;;;;5000899;28;20220;-86
2022/12/15 05:32:47;;;;;;;1.60;1.50;;;-9.30;97.30;;;;;;4996639;28;20781;-86
2022/12/15 05:35:12;;;;;;;2.00;1.87;;;-9.30;97.30;;;;;;4978726;28;20405;-86
2022/12/15 05:37:38;;;;;;;2.53;2.33;;;-9.30;97.30;;;;;;4980592;28;20366;-86
2022/12/15 05:40:04;;;;;;;3.63;3.27;;;-9.30;97.30;;;;;;4978089;28;20217;-87
2022/12/15 05:42:29;;;;;;;7.63;3.70;;;-9.30;97.30;;;;;;4978247;28;20209;-85
2022/12/15 05:44:55;;;;;;;10.33;3.00;;;-9.20;97.30;;;;;;4982277;28;20503;-84
2022/12/15 05:47:20;;;;;;;3.67;3.07;;;-9.20;97.30;;;;;;4995574;28;20581;-84
2022/12/15 05:49:46;;;;;;;4.63;2.53;;;-9.20;97.30;;;;;;4978097;28;20632;-87
2022/12/15 05:52:11;;;;;;;3.43;3.23;;;-9.30;97.30;;;;;;4979074;28;20554;-86
2022/12/15 05:54:38;;;;;;;2.50;2.07;;;-9.40;97.30;;;;;;4984474;28;20297;-86
2022/12/15 05:57:03;;;;;;;11.10;3.63;;;-9.40;97.30;;;;;;4996563;28;21018;-84
2022/12/15 05:59:29;;;;;;;1.80;1.70;;;-9.40;97.30;;;;;;4987374;28;20177;-87
2022/12/15 06:01:56;;;;;;;1.90;1.80;;;-9.40;97.30;;;;;;4991516;28;20661;-87
2022/12/15 06:04:22;;;;;;;1.97;1.63;;;-9.40;97.30;;;;;;4977914;28;20177;-84
2022/12/15 06:06:47;;;;;;;2.77;2.40;;;-9.40;97.30;;;;;;4985729;28;20503;-85
2022/12/15 06:09:13;;;;;;;2.50;2.30;;;-9.40;97.30;;;;;;4986528;28;20174;-86
2022/12/15 06:11:39;;;;;;;5.30;4.50;;;-9.40;97.30;;;;;;4985289;28;20200;-85
2022/12/15 06:14:04;;;;;;;2.50;2.30;;;-9.40;97.30;;;;;;4978174;28;20185;-86
2022/12/15 06:16:30;;;;;;;2.73;2.53;;;-9.40;97.30;;;;;;4977607;28;20250;-87
2022/12/15 06:18:58;;;;;;;3.27;3.07;;;-9.50;97.30;;;;;;4978156;28;20716;-86
2022/12/15 06:21:30;;;;;;;2.87;2.67;;;-9.50;97.30;;;;;;4977518;28;20453;-85
2022/12/15 06:23:56;;;;;;;4.37;3.13;;;-9.40;97.30;;;;;;4971897;28;20540;-86
2022/12/15 06:26:21;;;;;;;4.27;3.17;;;-9.40;97.30;;;;;;4980371;28;20453;-85
2022/12/15 06:28:48;;;;;;;4.47;4.17;;;-9.40;97.30;;;;;;4978828;28;20206;-86
2022/12/15 06:31:18;;;;;;;3.40;3.20;;;-9.40;97.30;;;;;;4980553;28;20269;-87
2022/12/15 06:33:44;;;;;;;1.90;1.80;;;-9.40;97.30;;;;;;4971562;28;20955;-86
2022/12/15 06:36:14;;;;;;;3.30;3.10;;;-9.40;97.30;;;;;;4977126;28;20457;-88
2022/12/15 06:38:42;;;;;;;4.30;4.03;;;-9.40;97.30;;;;;;4971337;28;20686;-86
2022/12/15 06:41:08;;;;;;;5.60;2.53;;;-9.40;97.30;;;;;;4989078;28;20967;-87
2022/12/15 06:43:34;;;;;;;2.43;2.23;;;-9.40;97.30;;;;;;4977085;28;20951;-87
2022/12/15 06:46:01;;;;;;;2.77;2.57;;;-9.40;97.30;;;;;;4983309;28;20689;-87
2022/12/15 06:48:26;;;;;;;3.87;3.17;;;-9.40;97.30;;;;;;4979669;28;20182;-87
2022/12/15 06:50:53;;;;;;;1.50;1.40;;;-9.50;97.30;;;;;;4973422;28;20852;-86
2022/12/15 06:53:22;;;;;;;1.40;1.30;;;-9.60;97.30;;;;;;4976685;28;20429;-86
2022/12/15 06:55:48;;;;;;;2.80;1.83;;;-9.60;97.30;;;;;;4975824;28;20421;-86
2022/12/15 06:58:14;;;;;;;8.60;5.40;;;-9.60;97.30;;;;;;4978375;28;20448;-88
2022/12/15 07:00:43;;;;;;;2.77;2.57;;;-9.60;97.30;;;;;;4976388;28;21018;-86
2022/12/15 07:03:16;;;;;;;2.53;2.33;;;-9.60;97.30;;;;;;4975352;28;20460;-89
2022/12/15 07:05:43;;;;;;;3.07;2.87;;;-9.70;97.30;;;;;;4964871;28;20429;-86
2022/12/15 07:08:10;;;;;;;2.03;1.90;;;-9.70;97.30;;;;;;4978205;28;20982;-86
2022/12/15 07:10:43;;;;;;;3.60;3.27;;;-9.80;97.30;;;;;;4974629;28;20804;-86
2022/12/15 07:13:12;;;;;;;3.17;2.97;;;-9.80;97.30;;;;;;4990422;28;20797;-87
2022/12/15 07:15:39;;;;;;;3.60;3.47;;;-9.90;97.30;;;;;;4980863;28;20417;-87
2022/12/15 07:18:05;;;;;;;3.00;2.80;;;-9.90;97.30;;;;;;4981638;28;20580;-86
2022/12/15 07:20:31;;;;;;;6.10;4.00;;;-9.80;97.30;;;;;;4978878;28;20855;-87
2022/12/15 07:22:57;;;;;;;2.40;1.50;;;-9.80;97.30;;;;;;4980043;28;20429;-87
2022/12/15 07:25:23;;;;;;;2.03;1.90;;;-9.80;97.30;;;;;;4980277;28;20471;-87
2022/12/15 07:27:48;;;;;;;1.70;1.60;;;-9.70;97.30;;;;;;4989067;28;20209;-91
2022/12/15 07:30:15;;;;;;;3.00;2.80;;;-9.70;97.30;;;;;;4999239;28;20429;-90
2022/12/15 07:32:43;;;;;;;1.73;1.63;;;-9.70;97.30;;;;;;5014319;28;20181;-91
2022/12/15 07:35:09;;;;;;;12.87;4.93;;;-9.70;97.30;;;;;;5000952;28;20409;-91
2022/12/15 07:37:35;;;;;;;4.67;3.10;;;-9.70;97.30;;;;;;4991263;28;20597;-88
2022/12/15 07:40:01;;;;;;;2.17;2.00;;;-9.60;97.30;;;;;;4986104;28;20427;-86
2022/12/15 07:42:31;;;;;;;3.33;3.03;;;-9.60;97.30;;;;;;4987991;28;20428;-87
2022/12/15 07:44:56;;;;;;;5.13;3.13;;;-9.60;97.30;;;;;;4989248;28;20182;-87
2022/12/15 07:47:22;;;;;;;1.67;1.57;;;-9.50;97.30;;;;;;4979284;28;20448;-86
2022/12/15 07:49:48;;;;;;;1.73;1.63;;;-9.50;97.30;;;;;;4993437;28;20677;-84
2022/12/15 07:52:13;;;;;;;6.07;3.67;;;-9.50;97.30;;;;;;4979815;28;20174;-88
2022/12/15 07:54:39;;;;;;;1.90;1.80;;;-9.50;97.30;;;;;;4977574;28;20174;-85
2022/12/15 07:57:06;;;;;;;1.63;1.53;;;-9.40;97.30;;;;;;4979423;28;20213;-86
2022/12/15 07:59:33;;;;;;;6.80;2.23;;;-9.30;97.30;;;;;;4991901;28;20436;-86
2022/12/15 08:01:59;;;;;;;2.07;1.93;;;-9.10;97.30;;;;;;4977840;28;20507;-87
2022/12/15 08:04:25;;;;;;;11.93;3.60;;;-9.00;97.30;;;;;;4995919;28;20420;-86
2022/12/15 08:06:53;;;;;;;3.13;2.93;;;-8.90;97.30;;;;;;4984545;28;20444;-87
2022/12/15 08:09:18;;;;;;;2.27;2.10;;;-8.90;97.30;;;;;;5005216;28;20427;-85
2022/12/15 08:11:44;;;;;;;3.67;3.30;;;-8.90;97.30;;;;;;4978073;28;20424;-86
2022/12/15 08:14:09;;;;;;;2.60;2.40;;;-8.90;97.30;;;;;;4979250;28;20217;-87
2022/12/15 08:16:35;;;;;;;2.43;2.23;;;-8.90;97.30;;;;;;4983517;28;20264;-86
2022/12/15 08:19:02;;;;;;;2.50;2.30;;;-8.90;97.30;;;;;;4980005;28;20178;-86
2022/12/15 08:21:30;;;;;;;3.10;2.90;;;-8.80;97.30;;;;;;4983302;28;20477;-83
2022/12/15 08:23:55;;;;;;;2.00;1.90;;;-8.80;97.30;;;;;;4988443;28;21109;-86
2022/12/15 08:26:22;;;;;;;2.70;2.50;;;-8.70;97.30;;;;;;4976917;28;20592;-86
2022/12/15 08:28:48;;;;;;;1.13;1.03;;;-8.50;97.30;;;;;;4978539;28;20372;-86
2022/12/15 08:31:16;;;;;;;8.27;4.17;;;-8.40;97.30;;;;;;4983220;28;20961;-87
2022/12/15 08:33:43;;;;;;;3.03;2.83;;;-8.20;97.30;;;;;;4974360;28;20241;-86
2022/12/15 08:36:11;;;;;;;3.40;3.20;;;-8.00;97.30;;;;;;4977147;28;20491;-86
2022/12/15 08:38:38;;;;;;;4.37;2.40;;;-7.80;97.30;;;;;;4976947;28;20429;-86
2022/12/15 08:41:11;;;;;;;2.50;2.30;;;-7.60;97.30;;;;;;4976666;28;20457;-86
2022/12/15 08:43:38;;;;;;;3.23;2.77;;;-7.40;97.30;;;;;;4988630;28;20428;-86
2022/12/15 08:46:05;;;;;;;6.23;2.40;;;-7.30;97.30;;;;;;4982023;28;20532;-86
2022/12/15 08:48:30;;;;;;;3.27;2.13;;;-7.20;97.30;;;;;;4977607;28;20425;-86
2022/12/15 08:50:57;;;;;;;4.60;4.30;;;-7.00;97.30;;;;;;4977011;28;20420;-87
2022/12/15 08:53:23;;;;;;;2.90;2.47;;;-6.90;97.30;;;;;;4976847;28;20183;-87
2022/12/15 08:55:49;;;;;;;3.80;3.60;;;-6.70;97.30;;;;;;4982459;28;20454;-87
2022/12/15 08:58:14;;;;;;;1.80;1.70;;;-6.60;97.30;;;;;;4977202;28;20189;-86
2022/12/15 09:00:40;;;;;;;1.83;1.73;;;-6.40;97.30;;;;;;4986456;28;20205;-86
2022/12/15 09:03:06;;;;;;;2.27;2.10;;;-6.30;97.30;;;;;;4993695;28;20641;-86
2022/12/15 09:05:34;;;;;;;2.37;2.17;;;-6.20;97.30;;;;;;4976480;28;20990;-87
2022/12/15 09:08:00;;;;;;;3.53;2.00;;;-6.00;97.30;;;;;;4976335;28;20222;-87
2022/12/15 09:10:25;;;;;;;5.30;4.27;;;-5.80;97.30;;;;;;4981661;28;20450;-85
2022/12/15 09:12:51;;;;;;;2.80;2.60;;;-5.70;97.30;;;;;;4982183;28;20677;-88
2022/12/15 09:15:17;;;;;;;3.93;3.77;;;-5.60;97.30;;;;;;4976192;28;20276;-86
2022/12/15 09:17:44;;;;;;;4.50;3.23;;;-5.50;97.30;;;;;;4976618;28;20898;-86
2022/12/15 09:20:09;;;;;;;10.63;4.73;;;-5.40;97.30;;;;;;4976574;28;20436;-88
2022/12/15 09:22:35;;;;;;;2.70;2.53;;;-5.30;97.30;;;;;;4978091;28;20424;-86
2022/12/15 09:25:02;;;;;;;4.83;2.50;;;-5.30;97.30;;;;;;4977658;28;20176;-87
2022/12/15 09:27:29;;;;;;;8.10;5.40;;;-5.20;97.30;;;;;;4974060;28;20280;-86
2022/12/15 09:29:55;;;;;;;5.00;4.27;;;-5.10;97.30;;;;;;4976275;28;20425;-86
2022/12/15 09:32:21;;;;;;;3.67;3.47;;;-5.00;97.30;;;;;;4976099;28;20428;-86
2022/12/15 09:34:46;;;;;;;5.33;5.13;;;-4.90;97.30;;;;;;4977338;28;20439;-86
2022/12/15 09:37:12;;;;;;;2.83;2.63;;;-4.80;97.30;;;;;;4972874;28;20465;-86
2022/12/15 09:39:38;;;;;;;9.03;5.37;;;-4.70;97.30;;;;;;4974186;28;20193;-89
2022/12/15 09:42:04;;;;;;;1.57;1.47;;;-4.50;97.30;;;;;;4976040;28;20216;-87
2022/12/15 09:44:31;;;;;;;2.40;1.97;;;-4.40;97.30;;;;;;4974868;28;20280;-86
2022/12/15 09:47:06;;;;;;;4.13;3.50;;;-4.30;97.30;;;;;;4990618;28;20205;-87
2022/12/15 09:49:38;;;;;;;4.00;2.80;;;-4.30;97.30;;;;;;4979231;28;20420;-87
2022/12/15 09:52:16;;;;;;;9.33;4.47;;;-4.20;97.30;;;;;;4980050;28;20814;-87
2022/12/15 09:54:43;;;;;;;3.50;3.30;;;-4.10;97.30;;;;;;4979159;28;20456;-86
2022/12/15 09:57:34;;;;;;;1.70;1.60;;;-4.00;97.30;;;;;;4974579;28;20539;-84
2022/12/15 10:00:20;;;;;;;2.70;2.50;;;-3.90;97.30;;;;;;4983096;28;20460;-86
2022/12/15 10:03:19;;;;;;;5.53;2.40;;;-3.90;97.30;;;;;;4994601;28;20415;-87
2022/12/15 10:06:04;;;;;;;7.87;5.53;;;-3.90;97.30;;;;;;4977675;28;20432;-87
2022/12/15 10:08:38;;;;;;;2.87;2.67;;;-3.80;97.30;;;;;;4980900;28;20420;-88
2022/12/15 10:11:16;;;;;;;9.57;5.33;;;-3.70;97.30;;;;;;4973219;28;20460;-87
2022/12/15 10:14:11;;;;;;;3.20;3.00;;;-3.60;97.30;;;;;;4991441;28;20951;-87
2022/12/15 10:17:16;;;;;;;4.00;3.80;;;-3.50;97.30;;;;;;4968155;28;20591;-88
2022/12/15 10:19:51;;;;;;;14.03;6.97;;;-3.40;97.30;;;;;;4984599;28;20477;-87
2022/12/15 10:22:28;;;;;;;7.70;4.80;;;-3.30;97.30;;;;;;4985382;28;20502;-89
2022/12/15 10:24:54;;;;;;;2.57;2.37;;;-3.20;97.30;;;;;;4972974;28;20435;-87
2022/12/15 10:27:48;;;;;;;12.73;5.27;;;-3.00;97.30;;;;;;4973145;28;20452;-88
2022/12/15 10:30:14;;;;;;;9.73;4.30;;;-2.90;97.30;;;;;;4982176;28;20185;-89
2022/12/15 10:32:56;;;;;;;14.27;5.47;;;-2.70;97.30;;;;;;4976761;28;20875;-89
2022/12/15 10:35:34;;;;;;;2.90;2.70;;;-2.60;97.30;;;;;;4980348;23;20520;-87
2022/12/15 10:38:03;;;;;;;4.83;2.30;;;-2.50;97.30;;;;;;4961681;28;20424;-83
2022/12/15 10:40:48;;;;;;;5.80;3.67;;;-2.30;97.30;;;;;;4963741;28;20449;-84
2022/12/15 10:43:27;;;;;;;4.50;4.30;;;-2.30;97.30;;;;;;4969749;28;20565;-85
2022/12/15 10:46:11;;;;;;;24.07;5.13;;;-2.30;97.30;;;;;;4966740;28;20442;-84
2022/12/15 10:48:37;;;;;;;13.43;4.30;;;-2.40;97.30;;;;;;4961446;28;20410;-84
2022/12/15 10:51:35;;;;;;;1.97;1.83;;;-2.40;97.30;;;;;;4965378;28;20830;-85
2022/12/15 10:54:08;;;;;;;3.87;3.30;;;-2.30;97.30;;;;;;4970559;28;20418;-86
2022/12/15 10:56:48;;;;;;;5.77;4.47;;;-2.30;97.30;;;;;;4974784;28;20428;-85
2022/12/15 10:59:25;;;;;;;2.53;2.33;;;-2.30;97.30;;;;;;4991914;28;20432;-85
2022/12/15 11:01:51;;;;;;;3.70;3.50;;;-2.20;97.30;;;;;;4979333;28;20441;-87
2022/12/15 11:04:29;;;;;;;10.83;6.47;;;-2.20;97.30;;;;;;4974456;28;20452;-84
2022/12/15 11:06:57;;;;;;;3.70;2.63;;;-2.20;97.30;;;;;;4965963;28;20493;-86
2022/12/15 11:09:37;;;;;;;2.47;2.27;;;-2.00;97.30;;;;;;4960246;28;20838;-88
2022/12/15 11:15:00;;;;;;;6.80;4.03;;;-1.80;97.30;;;;;;4987526;28;20469;-88
2022/12/15 11:17:38;;;;;;;2.80;2.60;;;-1.80;97.30;;;;;;4977639;28;20434;-87
2022/12/15 11:20:11;;;;;;;12.20;3.67;;;-1.90;97.30;;;;;;4956389;28;20653;-87
2022/12/15 11:22:45;;;;;;;3.67;3.50;;;-1.90;97.30;;;;;;4973340;28;20424;-86
2022/12/15 11:25:22;;;;;;;5.03;3.33;;;-1.70;97.30;;;;;;4956278;28;20511;-86
2022/12/15 11:27:53;;;;;;;10.60;5.10;;;-1.60;97.30;;;;;;4964558;28;20472;-85
2022/12/15 11:30:22;;;;;;;5.40;2.83;;;-1.50;97.30;;;;;;4957750;28;20429;-89
2022/12/15 11:32:53;;;;;;;2.50;2.30;;;-1.40;97.30;;;;;;4955600;28;20418;-85
2022/12/15 11:35:47;;;;;;;10.03;3.50;;;-1.30;97.30;;;;;;4952734;28;20516;-88
2022/12/15 11:38:31;;;;;;;2.03;1.83;;;-1.20;97.30;;;;;;4913225;28;20433;-89
2022/12/15 11:41:03;;;;;;;5.70;2.40;;;-1.10;97.30;;;;;;4964812;28;20501;-88
2022/12/15 11:43:56;;;;;;;2.80;2.60;;;-1.10;97.30;;;;;;4957396;28;20549;-87
2022/12/15 11:46:26;;;;;;;3.00;2.70;;;-1.00;97.30;;;;;;4976979;28;20417;-87
2022/12/15 11:49:34;;;;;;;13.23;4.97;;;-0.70;97.30;;;;;;4951420;28;20541;-86
2022/12/15 11:52:05;;;;;;;3.43;3.23;;;-0.50;97.30;;;;;;4947524;28;20434;-86
2022/12/15 11:54:49;;;;;;;4.53;4.23;;;-0.30;97.30;;;;;;4945173;28;20501;-86
2022/12/15 11:57:44;;;;;;;14.43;4.53;;;-0.10;97.30;;;;;;4974094;28;20425;-89
2022/12/15 12:00:16;;;;;;;2.60;2.40;;;0.00;97.30;;;;;;4977942;28;20947;-90
2022/12/15 12:03:23;;;;;;;3.97;3.77;;;0.10;97.30;;;;;;4960794;28;20842;-89
2022/12/15 12:06:12;;;;;;;5.33;3.27;;;0.20;96.80;;;;;;4862142;29;20988;-89
2022/12/15 12:08:53;;;;;;;1.63;1.50;;;0.30;96.20;;;;;;4950497;28;20529;-86
2022/12/15 12:11:33;;;;;;;8.83;5.00;;;0.40;96.00;;;;;;4948591;29;20465;-89
2022/12/15 12:14:18;;;;;;;10.70;3.57;;;0.60;95.80;;;;;;4951230;28;20479;-89
2022/12/15 12:17:02;;;;;;;4.30;3.67;;;0.80;95.70;;;;;;4955702;28;20439;-90
2022/12/15 12:19:50;;;;;;;3.10;2.90;;;0.90;95.40;;;;;;4975454;28;20967;-88
2022/12/15 12:22:31;;;;;;;4.97;3.13;;;0.90;95.30;;;;;;4955421;28;20503;-87
2022/12/15 12:25:12;;;;;;;6.90;5.00;;;0.90;94.60;;;;;;4962689;28;20472;-85
2022/12/15 12:27:58;;;;;;;4.80;3.60;;;0.80;94.00;;;;;;4983052;28;20682;-88
2022/12/15 12:30:28;;;;;;;2.40;2.20;;;0.90;94.00;;;;;;4958033;28;20794;-88
2022/12/15 12:33:08;;;;;;;6.03;5.10;;;0.90;93.80;;;;;;4952035;28;20471;-88
2022/12/15 12:35:54;;;;;;;5.10;3.70;;;1.10;93.60;;;;;;4952833;28;20854;-88
2022/12/15 12:38:27;;;;;;;6.20;5.87;;;1.00;92.50;;;;;;4958511;28;20441;-87
2022/12/15 12:41:04;;;;;;;3.17;2.97;;;1.00;92.90;;;;;;4967537;28;20494;-86
2022/12/15 12:43:34;;;;;;;3.23;2.70;;;1.10;93.60;;;;;;4963193;28;20961;-85
2022/12/15 12:46:05;;;;;;;9.23;5.33;;;1.20;93.30;;;;;;4960814;28;20469;-87
2022/12/15 12:48:37;;;;;;;3.93;3.73;;;1.30;92.80;;;;;;4944547;28;20483;-85
2022/12/15 12:51:19;;;;;;;3.20;2.40;;;1.30;92.60;;;;;;4951349;28;20955;-86
2022/12/15 12:53:44;;;;;;;5.83;4.00;;;1.30;92.60;;;;;;4947651;28;20418;-86
2022/12/15 12:56:34;;;;;;;2.83;2.63;;;1.30;92.50;;;;;;4950890;29;20475;-87
2022/12/15 12:59:06;;;;;;;9.47;2.60;;;1.30;92.20;;;;;;4954062;28;20218;-87
2022/12/15 13:01:34;;;;;;;12.57;5.13;;;1.40;92.10;;;;;;4955425;28;20806;-87
2022/12/15 13:04:32;;;;;;;2.40;2.23;;;1.50;92.20;;;;;;4974181;28;20442;-87
2022/12/15 13:07:23;;;;;;;3.03;2.80;;;1.70;92.00;;;;;;4954818;28;20424;-87
2022/12/15 13:10:06;;;;;;;3.03;2.83;;;1.80;91.70;;;;;;4956957;28;20529;-87
2022/12/15 13:12:44;;;;;;;5.10;2.90;;;1.90;91.10;;;;;;4951414;28;20470;-90
2022/12/15 13:15:28;;;;;;;9.83;4.90;;;1.90;91.00;;;;;;4972232;28;20434;-87
2022/12/15 13:18:05;;;;;;;3.73;2.93;;;2.00;90.30;;;;;;4958817;28;20430;-87
2022/12/15 13:20:33;;;;;;;2.80;2.60;;;2.00;90.40;;;;;;4958467;28;20516;-87
2022/12/15 13:23:20;;;;;;;13.67;5.23;;;2.10;90.20;;;;;;4956615;28;20437;-86
2022/12/15 13:25:52;;;;;;;6.37;5.80;;;2.20;89.80;;;;;;4958722;28;20449;-86
2022/12/15 13:28:38;;;;;;;4.07;3.17;;;2.30;89.80;;;;;;4949402;28;20419;-87
2022/12/15 13:31:23;;;;;;;8.37;5.80;;;2.40;89.40;;;;;;4947973;28;20414;-86
2022/12/15 13:33:49;;;;;;;6.07;3.73;;;2.50;88.60;;;;;;4953531;28;20508;-87
2022/12/15 13:36:36;;;;;;;4.83;4.53;;;2.60;88.60;;;;;;4973962;28;20528;-87
2022/12/15 13:39:22;;;;;;;4.90;4.60;;;2.70;88.20;;;;;;4965166;28;20183;-88
2022/12/15 13:41:47;;;;;;;5.87;5.57;;;2.70;88.20;;;;;;4945701;28;20987;-87
2022/12/15 13:44:39;;;;;;;14.13;9.03;;;2.80;88.00;;;;;;4953979;28;20469;-87
2022/12/15 13:47:21;;;;;;;5.90;2.83;;;2.80;87.90;;;;;;4961050;28;20663;-87
2022/12/15 13:50:14;;;;;;;8.63;5.50;;;3.00;87.90;;;;;;4956244;28;20508;-87
2022/12/15 13:52:50;;;;;;;2.83;2.53;;;3.20;87.50;;;;;;4957485;28;20484;-89
2022/12/15 13:55:37;;;;;;;9.17;6.10;;;3.30;87.00;;;;;;4951499;28;20825;-89
2022/12/15 13:58:12;;;;;;;3.73;3.10;;;3.50;87.00;;;;;;4947611;28;20809;-87
2022/12/15 14:00:46;;;;;;;4.87;3.50;;;3.50;87.00;;;;;;4955851;28;20461;-90
2022/12/15 14:03:11;;;;;;;5.33;4.00;;;3.60;86.90;;;;;;4978653;28;20417;-88
2022/12/15 14:05:40;;;;;;;6.90;5.57;;;3.60;86.70;;;;;;4992233;28;20506;-88
2022/12/15 14:08:11;;;;;;;10.03;4.27;;;3.50;86.80;;;;;;4959759;28;20213;-87
2022/12/15 14:10:43;;;;;;;3.53;3.33;;;3.50;86.90;;;;;;4960168;28;20812;-89
2022/12/15 14:13:34;;;;;;;9.27;3.83;;;3.50;86.70;;;;;;4955434;28;21026;-88
2022/12/15 14:16:20;;;;;;;9.50;4.77;;;3.40;86.60;;;;;;4968571;28;20450;-90
2022/12/15 14:19:13;;;;;;;7.40;2.60;;;3.20;86.70;;;;;;4954413;28;20443;-87
2022/12/15 14:21:39;;;;;;;4.23;3.37;;;3.00;86.90;;;;;;4946668;28;20457;-89
2022/12/15 14:24:32;;;;;;;3.53;1.70;;;2.70;87.70;;;;;;4972678;28;20432;-86
2022/12/15 14:27:26;;;;;;;7.77;3.83;;;2.50;87.80;;;;;;4955677;28;20427;-90
2022/12/15 14:30:29;;;;;;;;;;;;;;;;;;;;;
2022/12/15 14:33:14;;;;;;;2.90;2.50;;;2.10;88.70;;;;;;4974567;28;20845;-90
2022/12/15 14:35:47;;;;;;;5.87;5.60;;;1.60;89.10;;;;;;4965976;28;20505;-90
2022/12/15 14:38:53;;;;;;;11.30;4.73;;;1.20;90.20;;;;;;4963827;28;20426;-89
2022/12/15 14:41:56;;;;;;;12.17;3.37;;;0.80;91.20;;;;;;4950662;29;20463;-89
2022/12/15 14:44:43;;;;;;;3.60;3.40;;;0.40;92.30;;;;;;4973466;28;20453;-90
2022/12/15 14:50:25;;;;;;;4.83;4.27;;;-0.30;94.10;;;;;;4975067;28;20425;-89
2022/12/15 14:56:44;;;;;;;2.50;2.30;;;-0.70;95.30;;;;;;4970801;28;20488;-90
2022/12/15 14:59:50;;;;;;;9.00;5.97;;;-1.00;96.30;;;;;;4954280;28;20496;-89
2022/12/15 15:02:29;;;;;;;5.53;3.57;;;-1.10;96.80;;;;;;4961829;28;20525;-89
2022/12/15 15:04:55;;;;;;;3.97;3.77;;;-1.20;97.00;;;;;;4968934;28;20485;-87
2022/12/15 15:07:21;;;;;;;18.30;7.60;;;-1.30;97.30;;;;;;4978442;28;20426;-88
2022/12/15 15:09:47;;;;;;;4.30;4.03;;;-1.40;97.30;;;;;;4960496;28;20628;-87
2022/12/15 15:12:16;;;;;;;13.83;5.17;;;-1.50;97.30;;;;;;4959864;28;20186;-88
2022/12/15 15:14:48;;;;;;;9.33;5.23;;;-1.50;97.30;;;;;;4955603;28;20891;-88
2022/12/15 15:17:25;;;;;;;8.93;3.37;;;-1.60;97.30;;;;;;4960362;28;20496;-88
2022/12/15 15:19:55;;;;;;;9.70;4.07;;;-1.60;97.30;;;;;;4958014;28;20430;-88
2022/12/15 15:22:34;;;;;;;2.30;2.10;;;-1.70;97.30;;;;;;4954672;28;20475;-87
2022/12/15 15:25:00;;;;;;;2.17;2.00;;;-1.90;97.30;;;;;;4955427;28;20790;-88
2022/12/15 15:27:34;;;;;;;6.13;3.53;;;-2.00;97.30;;;;;;4953419;28;20464;-88
2022/12/15 15:30:13;;;;;;;5.90;4.33;;;-2.00;97.30;;;;;;4954405;28;20683;-87
2022/12/15 15:32:51;;;;;;;3.17;2.97;;;-2.20;97.30;;;;;;4959013;28;20425;-88
2022/12/15 15:35:17;;;;;;;9.13;4.10;;;-2.30;97.30;;;;;;4956712;28;20488;-86
2022/12/15 15:37:43;;;;;;;2.80;2.60;;;-2.40;97.30;;;;;;4973122;28;20489;-88
2022/12/15 15:40:12;;;;;;;4.77;4.47;;;-2.50;97.30;;;;;;4951721;28;20524;-91
2022/12/15 15:42:44;;;;;;;3.23;3.03;;;-2.60;97.30;;;;;;4964242;28;20637;-89
2022/12/15 15:45:14;;;;;;;12.87;6.00;;;-2.60;97.30;;;;;;4958584;28;20839;-89
2022/12/15 15:47:44;;;;;;;3.70;3.53;;;-2.70;97.30;;;;;;4959350;28;20410;-89
2022/12/15 15:50:16;;;;;;;6.53;3.83;;;-2.80;97.30;;;;;;4956147;28;20457;-90